sensor_id;sensor_type;location;lat;lon;timestamp;pressure;altitude;pressure_sealevel;temperature;humidity
53647;BME280;39550;52.230;5.194;2024-01-15T00:00:23;100171.06;;;15.65;61.50
53647;BME280;39550;52.230;5.194;2024-01-15T00:02:48;100168.59;;;15.60;62.59
53647;BME280;39550;52.230;5.194;2024-01-15T00:05:14;100166.88;;;15.59;62.02
53647;BME280;39550;52.230;5.194;2024-01-15T00:07:39;100167.78;;;15.58;62.04
53647;BME280;39550;52.230;5.194;2024-01-15T00:10:04;100154.00;;;15.55;61.70
53647;BME280;39550;52.230;5.194;2024-01-15T00:12:30;100154.06;;;15.52;61.73
53647;BME280;39550;52.230;5.194;2024-01-15T00:14:56;100151.50;;;15.50;62.03
53647;BME280;39550;52.230;5.194;2024-01-15T00:17:21;100156.78;;;15.47;61.98
53647;BME280;39550;52.230;5.194;2024-01-15T00:19:46;100145.53;;;15.46;61.77
53647;BME280;39550;52.230;5.194;2024-01-15T00:22:11;100144.78;;;15.43;61.96
53647;BME280;39550;52.230;5.194;2024-01-15T00:24:37;100138.78;;;15.39;62.10
53647;BME280;39550;52.230;5.194;2024-01-15T00:27:02;100131.91;;;15.38;61.65
53647;BME280;39550;52.230;5.194;2024-01-15T00:29:27;100124.13;;;15.37;61.71
53647;BME280;39550;52.230;5.194;2024-01-15T00:31:53;100126.81;;;15.33;62.08
53647;BME280;39550;52.230;5.194;2024-01-15T00:34:18;100134.63;;;15.32;62.23
53647;BME280;39550;52.230;5.194;2024-01-15T00:36:43;100126.00;;;15.31;62.30
53647;BME280;39550;52.230;5.194;2024-01-15T00:39:09;100125.19;;;15.28;61.91
53647;BME280;39550;52.230;5.194;2024-01-15T00:41:35;100126.00;;;15.31;61.86
53647;BME280;39550;52.230;5.194;2024-01-15T00:44:01;100117.44;;;15.26;61.61
53647;BME280;39550;52.230;5.194;2024-01-15T00:46:26;100124.34;;;15.27;61.72
53647;BME280;39550;52.230;5.194;2024-01-15T00:48:51;100123.47;;;15.27;61.47
53647;BME280;39550;52.230;5.194;2024-01-15T00:51:17;100116.63;;;15.26;62.00
53647;BME280;39550;52.230;5.194;2024-01-15T00:53:42;100119.22;;;15.24;61.69
53647;BME280;39550;52.230;5.194;2024-01-15T00:56:07;100116.66;;;15.23;61.58
53647;BME280;39550;52.230;5.194;2024-01-15T00:58:33;100115.81;;;15.22;60.97
53647;BME280;39550;52.230;5.194;2024-01-15T01:00:58;100114.09;;;15.21;60.90
53647;BME280;39550;52.230;5.194;2024-01-15T01:03:23;100116.75;;;15.20;61.14
53647;BME280;39550;52.230;5.194;2024-01-15T01:05:49;100113.31;;;15.19;60.96
53647;BME280;39550;52.230;5.194;2024-01-15T01:08:15;100119.38;;;15.18;60.93
53647;BME280;39550;52.230;5.194;2024-01-15T01:10:40;100115.97;;;15.16;60.88
53647;BME280;39550;52.230;5.194;2024-01-15T01:13:08;100110.81;;;15.13;61.64
53647;BME280;39550;52.230;5.194;2024-01-15T01:15:33;100111.66;;;15.15;60.60
53647;BME280;39550;52.230;5.194;2024-01-15T01:17:58;100102.31;;;15.08;61.49
53647;BME280;39550;52.230;5.194;2024-01-15T01:20:23;100102.31;;;15.08;61.12
53647;BME280;39550;52.230;5.194;2024-01-15T01:22:49;100110.06;;;15.09;61.43
53647;BME280;39550;52.230;5.194;2024-01-15T01:25:14;100110.09;;;15.08;61.25
53647;BME280;39550;52.230;5.194;2024-01-15T01:27:39;100099.78;;;15.05;61.52
53647;BME280;39550;52.230;5.194;2024-01-15T01:30:05;100102.34;;;15.05;61.10
53647;BME280;39550;52.230;5.194;2024-01-15T01:32:31;100095.53;;;15.01;60.76
53647;BME280;39550;52.230;5.194;2024-01-15T01:34:56;100087.72;;;15.02;60.15
53647;BME280;39550;52.230;5.194;2024-01-15T01:37:21;100092.97;;;14.99;60.86
53647;BME280;39550;52.230;5.194;2024-01-15T01:39:46;100095.59;;;14.97;61.03
53647;BME280;39550;52.230;5.194;2024-01-15T01:42:12;100100.81;;;14.97;60.84
53647;BME280;39550;52.230;5.194;2024-01-15T01:44:37;100094.81;;;14.95;60.37
53647;BME280;39550;52.230;5.194;2024-01-15T01:47:03;100104.31;;;14.95;60.13
53647;BME280;39550;52.230;5.194;2024-01-15T01:49:29;100101.78;;;14.92;60.45
53647;BME280;39550;52.230;5.194;2024-01-15T01:51:59;100106.19;;;14.90;60.13
53647;BME280;39550;52.230;5.194;2024-01-15T01:54:30;100111.44;;;14.85;60.80
53647;BME280;39550;52.230;5.194;2024-01-15T01:56:56;100124.34;;;14.88;60.92
53647;BME280;39550;52.230;5.194;2024-01-15T01:59:23;100120.06;;;14.87;60.12
53647;BME280;39550;52.230;5.194;2024-01-15T02:01:51;100123.53;;;14.86;60.71
53647;BME280;39550;52.230;5.194;2024-01-15T02:04:17;100124.47;;;14.82;60.83
53647;BME280;39550;52.230;5.194;2024-01-15T02:06:43;100117.63;;;14.79;60.70
53647;BME280;39550;52.230;5.194;2024-01-15T02:09:08;100112.44;;;14.79;60.17
53647;BME280;39550;52.230;5.194;2024-01-15T02:11:34;100105.56;;;14.77;60.47
53647;BME280;39550;52.230;5.194;2024-01-15T02:14:00;100104.72;;;14.76;60.61
53647;BME280;39550;52.230;5.194;2024-01-15T02:16:26;100101.25;;;14.76;59.89
53647;BME280;39550;52.230;5.194;2024-01-15T02:18:51;100103.88;;;14.74;60.84
53647;BME280;39550;52.230;5.194;2024-01-15T02:21:16;100094.47;;;14.72;60.63
53647;BME280;39550;52.230;5.194;2024-01-15T02:23:42;100097.94;;;14.71;60.48
53647;BME280;39550;52.230;5.194;2024-01-15T02:26:07;100095.38;;;14.69;60.09
53647;BME280;39550;52.230;5.194;2024-01-15T02:28:33;100098.84;;;14.68;60.03
53647;BME280;39550;52.230;5.194;2024-01-15T02:30:59;100092.81;;;14.68;60.04
53647;BME280;39550;52.230;5.194;2024-01-15T02:33:24;100085.97;;;14.63;60.64
53647;BME280;39550;52.230;5.194;2024-01-15T02:35:50;100091.16;;;14.63;60.04
53647;BME280;39550;52.230;5.194;2024-01-15T02:38:16;100088.59;;;14.60;60.76
53647;BME280;39550;52.230;5.194;2024-01-15T02:40:43;100091.19;;;14.60;60.26
53647;BME280;39550;52.230;5.194;2024-01-15T02:43:08;100094.66;;;14.61;60.25
53647;BME280;39550;52.230;5.194;2024-01-15T02:45:33;100091.22;;;14.59;60.16
53647;BME280;39550;52.230;5.194;2024-01-15T02:47:59;100091.25;;;14.57;59.89
53647;BME280;39550;52.230;5.194;2024-01-15T02:50:24;100093.88;;;14.56;60.06
53647;BME280;39550;52.230;5.194;2024-01-15T02:52:49;100091.31;;;14.54;60.17
53647;BME280;39550;52.230;5.194;2024-01-15T02:55:15;100090.47;;;14.52;60.33
53647;BME280;39550;52.230;5.194;2024-01-15T02:57:40;100075.06;;;14.46;60.20
53647;BME280;39550;52.230;5.194;2024-01-15T03:00:06;100092.25;;;14.50;60.42
53647;BME280;39550;52.230;5.194;2024-01-15T03:02:32;100077.69;;;14.44;60.84
53647;BME280;39550;52.230;5.194;2024-01-15T03:04:58;100072.53;;;14.43;60.10
53647;BME280;39550;52.230;5.194;2024-01-15T03:07:23;100080.28;;;14.44;60.80
53647;BME280;39550;52.230;5.194;2024-01-15T03:09:48;100074.28;;;14.41;60.03
53647;BME280;39550;52.230;5.194;2024-01-15T03:12:13;100075.19;;;14.40;60.31
53647;BME280;39550;52.230;5.194;2024-01-15T03:14:39;100077.78;;;14.40;60.18
53647;BME280;39550;52.230;5.194;2024-01-15T03:17:04;100086.44;;;14.39;60.80
53647;BME280;39550;52.230;5.194;2024-01-15T03:19:29;100089.06;;;14.37;59.91
53647;BME280;39550;52.230;5.194;2024-01-15T03:21:56;100099.44;;;14.37;60.33
53647;BME280;39550;52.230;5.194;2024-01-15T03:24:21;100101.34;;;14.29;60.06
53647;BME280;39550;52.230;5.194;2024-01-15T03:26:46;100098.63;;;14.34;60.56
53647;BME280;39550;52.230;5.194;2024-01-15T03:29:12;100112.47;;;14.33;60.67
53647;BME280;39550;52.230;5.194;2024-01-15T03:31:37;100105.56;;;14.31;60.82
53647;BME280;39550;52.230;5.194;2024-01-15T03:34:02;100088.34;;;14.30;60.65
53647;BME280;39550;52.230;5.194;2024-01-15T03:36:28;100079.72;;;14.28;60.36
53647;BME280;39550;52.230;5.194;2024-01-15T03:38:53;100084.91;;;14.28;59.93
53647;BME280;39550;52.230;5.194;2024-01-15T03:41:19;100076.31;;;14.26;60.31
53647;BME280;39550;52.230;5.194;2024-01-15T03:43:44;100065.13;;;14.24;60.50
53647;BME280;39550;52.230;5.194;2024-01-15T03:46:09;100053.94;;;14.22;60.23
53647;BME280;39550;52.230;5.194;2024-01-15T03:48:34;100060.84;;;14.22;60.63
53647;BME280;39550;52.230;5.194;2024-01-15T03:51:00;100055.69;;;14.20;60.26
53647;BME280;39550;52.230;5.194;2024-01-15T03:53:25;100047.19;;;14.15;60.16
53647;BME280;39550;52.230;5.194;2024-01-15T03:55:51;100058.34;;;14.17;60.56
53647;BME280;39550;52.230;5.194;2024-01-15T03:58:17;100040.28;;;14.14;60.03
53647;BME280;39550;52.230;5.194;2024-01-15T04:00:43;100042.88;;;14.14;60.16
53647;BME280;39550;52.230;5.194;2024-01-15T04:03:08;100043.75;;;14.13;60.12
53647;BME280;39550;52.230;5.194;2024-01-15T04:05:33;100047.22;;;14.12;60.47
53647;BME280;39550;52.230;5.194;2024-01-15T04:07:59;100043.78;;;14.11;60.57
53647;BME280;39550;52.230;5.194;2024-01-15T04:10:24;100031.81;;;14.06;60.29
53647;BME280;39550;52.230;5.194;2024-01-15T04:12:49;100033.63;;;14.01;60.22
53647;BME280;39550;52.230;5.194;2024-01-15T04:15:15;100031.81;;;14.06;60.69
53647;BME280;39550;52.230;5.194;2024-01-15T04:17:40;100030.97;;;14.05;60.76
53647;BME280;39550;52.230;5.194;2024-01-15T04:20:06;100026.69;;;14.03;59.86
53647;BME280;39550;52.230;5.194;2024-01-15T04:22:32;100025.06;;;13.99;60.09
53647;BME280;39550;52.230;5.194;2024-01-15T04:24:58;100027.56;;;14.02;60.18
53647;BME280;39550;52.230;5.194;2024-01-15T04:27:24;100021.56;;;14.00;59.86
53647;BME280;39550;52.230;5.194;2024-01-15T04:29:49;100026.75;;;13.98;60.53
53647;BME280;39550;52.230;5.194;2024-01-15T04:32:14;100024.31;;;13.92;60.29
53647;BME280;39550;52.230;5.194;2024-01-15T04:34:40;100027.66;;;13.97;59.69
53647;BME280;39550;52.230;5.194;2024-01-15T04:37:05;100029.41;;;13.95;59.72
53647;BME280;39550;52.230;5.194;2024-01-15T04:39:30;100033.78;;;13.91;59.89
53647;BME280;39550;52.230;5.194;2024-01-15T04:41:55;100036.38;;;13.93;59.98
53647;BME280;39550;52.230;5.194;2024-01-15T04:44:21;100029.53;;;13.90;59.81
53647;BME280;39550;52.230;5.194;2024-01-15T04:46:46;100026.06;;;13.90;60.57
53647;BME280;39550;52.230;5.194;2024-01-15T04:49:11;100025.25;;;13.88;59.64
53647;BME280;39550;52.230;5.194;2024-01-15T04:51:36;100016.59;;;13.87;60.22
53647;BME280;39550;52.230;5.194;2024-01-15T04:54:02;100005.50;;;13.82;60.25
53647;BME280;39550;52.230;5.194;2024-01-15T04:56:27;100002.91;;;13.82;60.64
53647;BME280;39550;52.230;5.194;2024-01-15T04:58:52;100008.94;;;13.83;60.39
53647;BME280;39550;52.230;5.194;2024-01-15T05:01:18;100003.72;;;13.84;60.27
53647;BME280;39550;52.230;5.194;2024-01-15T05:03:43;100003.78;;;13.81;60.09
53647;BME280;39550;52.230;5.194;2024-01-15T05:06:09;100011.56;;;13.81;60.35
53647;BME280;39550;52.230;5.194;2024-01-15T05:08:34;100008.13;;;13.81;60.21
53647;BME280;39550;52.230;5.194;2024-01-15T05:10:59;100003.81;;;13.79;59.97
53647;BME280;39550;52.230;5.194;2024-01-15T05:13:25;100001.25;;;13.78;59.76
53647;BME280;39550;52.230;5.194;2024-01-15T05:15:50;99992.69;;;13.74;60.27
53647;BME280;39550;52.230;5.194;2024-01-15T05:18:16;99997.00;;;13.75;60.31
53647;BME280;39550;52.230;5.194;2024-01-15T05:20:41;100003.91;;;13.73;59.79
53647;BME280;39550;52.230;5.194;2024-01-15T05:23:07;100002.28;;;13.71;59.96
53647;BME280;39550;52.230;5.194;2024-01-15T05:25:32;99999.72;;;13.68;60.22
53647;BME280;39550;52.230;5.194;2024-01-15T05:27:57;100000.63;;;13.67;59.89
53647;BME280;39550;52.230;5.194;2024-01-15T05:30:23;100009.19;;;13.69;59.81
53647;BME280;39550;52.230;5.194;2024-01-15T05:32:48;100012.66;;;13.68;60.57
53647;BME280;39550;52.230;5.194;2024-01-15T05:35:13;100003.25;;;13.63;60.20
53647;BME280;39550;52.230;5.194;2024-01-15T05:37:43;100008.44;;;13.62;60.25
53647;BME280;39550;52.230;5.194;2024-01-15T05:40:09;100010.13;;;13.65;59.74
53647;BME280;39550;52.230;5.194;2024-01-15T05:42:34;100015.31;;;13.65;59.49
53647;BME280;39550;52.230;5.194;2024-01-15T05:45:00;100016.25;;;13.60;60.36
53647;BME280;39550;52.230;5.194;2024-01-15T05:47:27;100026.59;;;13.60;60.11
53647;BME280;39550;52.230;5.194;2024-01-15T05:49:54;100036.94;;;13.60;59.85
53647;BME280;39550;52.230;5.194;2024-01-15T05:52:19;100027.47;;;13.59;60.24
53647;BME280;39550;52.230;5.194;2024-01-15T05:54:47;100020.63;;;13.58;60.07
53647;BME280;39550;52.230;5.194;2024-01-15T05:57:12;100018.06;;;13.57;59.98
53647;BME280;39550;52.230;5.194;2024-01-15T05:59:37;100017.19;;;13.56;59.54
53647;BME280;39550;52.230;5.194;2024-01-15T06:02:02;100011.22;;;13.53;60.17
53647;BME280;39550;52.230;5.194;2024-01-15T06:04:28;100009.44;;;13.55;59.98
53647;BME280;39550;52.230;5.194;2024-01-15T06:06:53;100005.13;;;13.57;60.03
53647;BME280;39550;52.230;5.194;2024-01-15T06:09:18;100001.50;;;13.66;59.81
53647;BME280;39550;52.230;5.194;2024-01-15T06:11:44;99995.44;;;13.67;59.80
53647;BME280;39550;52.230;5.194;2024-01-15T06:14:09;99998.84;;;13.69;59.93
53647;BME280;39550;52.230;5.194;2024-01-15T06:16:34;99999.72;;;13.68;59.84
53647;BME280;39550;52.230;5.194;2024-01-15T06:18:59;99994.53;;;13.68;59.73
53647;BME280;39550;52.230;5.194;2024-01-15T06:21:25;100001.31;;;13.75;59.29
53647;BME280;39550;52.230;5.194;2024-01-15T06:23:50;100001.19;;;13.81;59.37
53647;BME280;39550;52.230;5.194;2024-01-15T06:26:15;99984.75;;;13.84;59.67
53647;BME280;39550;52.230;5.194;2024-01-15T06:28:41;99989.97;;;13.82;59.54
53647;BME280;39550;52.230;5.194;2024-01-15T06:31:06;99990.06;;;13.76;59.51
53647;BME280;39550;52.230;5.194;2024-01-15T06:33:32;99984.88;;;13.76;59.72
53647;BME280;39550;52.230;5.194;2024-01-15T06:35:57;99982.44;;;13.70;59.95
53647;BME280;39550;52.230;5.194;2024-01-15T06:40:08;99989.00;;;13.39;62.64
53647;BME280;39550;52.230;5.194;2024-01-15T06:42:33;99987.59;;;13.20;63.31
53647;BME280;39550;52.230;5.194;2024-01-15T06:44:59;99987.59;;;13.20;64.11
53647;BME280;39550;52.230;5.194;2024-01-15T06:47:24;99986.00;;;13.11;63.50
53647;BME280;39550;52.230;5.194;2024-01-15T06:49:49;99980.81;;;13.11;63.69
53647;BME280;39550;52.230;5.194;2024-01-15T06:52:17;99984.34;;;13.08;63.57
53647;BME280;39550;52.230;5.194;2024-01-15T06:54:42;99988.56;;;13.11;63.63
53647;BME280;39550;52.230;5.194;2024-01-15T06:57:07;100004.09;;;13.11;63.24
53647;BME280;39550;52.230;5.194;2024-01-15T06:59:34;100016.09;;;13.15;63.09
53647;BME280;39550;52.230;5.194;2024-01-15T07:02:00;100025.72;;;13.08;63.31
53647;BME280;39550;52.230;5.194;2024-01-15T07:04:25;100007.59;;;13.07;63.47
53647;BME280;39550;52.230;5.194;2024-01-15T07:06:50;100001.50;;;13.14;64.05
53647;BME280;39550;52.230;5.194;2024-01-15T07:09:16;100006.63;;;13.16;64.33
53647;BME280;39550;52.230;5.194;2024-01-15T07:11:45;99998.91;;;13.14;64.71
53647;BME280;39550;52.230;5.194;2024-01-15T07:14:11;100004.09;;;13.13;64.35
53647;BME280;39550;52.230;5.194;2024-01-15T07:16:37;100004.16;;;13.08;65.01
53647;BME280;39550;52.230;5.194;2024-01-15T07:19:02;99999.13;;;12.99;64.31
53647;BME280;39550;52.230;5.194;2024-01-15T07:21:27;100000.00;;;12.99;64.20
53647;BME280;39550;52.230;5.194;2024-01-15T07:23:52;99990.53;;;12.97;64.44
53647;BME280;39550;52.230;5.194;2024-01-15T07:26:18;99993.94;;;12.99;64.01
53647;BME280;39550;52.230;5.194;2024-01-15T07:28:43;99986.28;;;12.92;64.13
53647;BME280;39550;52.230;5.194;2024-01-15T07:31:08;99999.28;;;12.89;64.42
53647;BME280;39550;52.230;5.194;2024-01-15T07:33:34;100007.09;;;12.85;64.24
53647;BME280;39550;52.230;5.194;2024-01-15T07:35:59;100013.34;;;12.70;63.86
53647;BME280;39550;52.230;5.194;2024-01-15T07:38:24;100013.97;;;12.86;64.68
53647;BME280;39550;52.230;5.194;2024-01-15T07:40:50;100014.78;;;12.89;63.94
53647;BME280;39550;52.230;5.194;2024-01-15T07:43:15;100012.16;;;12.92;63.82
53647;BME280;39550;52.230;5.194;2024-01-15T07:45:40;99990.66;;;12.90;64.19
53647;BME280;39550;52.230;5.194;2024-01-15T07:48:06;99990.59;;;12.93;63.82
53647;BME280;39550;52.230;5.194;2024-01-15T07:50:31;99990.59;;;12.93;63.44
53647;BME280;39550;52.230;5.194;2024-01-15T07:52:57;99982.09;;;12.85;64.04
53647;BME280;39550;52.230;5.194;2024-01-15T07:55:22;99993.47;;;12.73;63.68
53647;BME280;39550;52.230;5.194;2024-01-15T07:57:47;99988.19;;;12.81;63.74
53647;BME280;39550;52.230;5.194;2024-01-15T08:00:13;100000.22;;;12.84;63.47
53647;BME280;39550;52.230;5.194;2024-01-15T08:02:38;99995.91;;;12.84;63.72
53647;BME280;39550;52.230;5.194;2024-01-15T08:05:04;99986.44;;;12.83;63.72
53647;BME280;39550;52.230;5.194;2024-01-15T08:07:29;99987.34;;;12.79;63.55
53647;BME280;39550;52.230;5.194;2024-01-15T08:09:54;99993.41;;;12.80;63.60
53647;BME280;39550;52.230;5.194;2024-01-15T08:12:20;100003.72;;;12.81;63.18
53647;BME280;39550;52.230;5.194;2024-01-15T08:14:45;100013.22;;;12.79;63.76
53647;BME280;39550;52.230;5.194;2024-01-15T08:17:11;100016.72;;;12.75;64.02
53647;BME280;39550;52.230;5.194;2024-01-15T08:19:36;100037.38;;;12.75;63.88
53647;BME280;39550;52.230;5.194;2024-01-15T08:22:01;100024.44;;;12.76;63.76
53647;BME280;39550;52.230;5.194;2024-01-15T08:24:27;100019.28;;;12.78;63.49
53647;BME280;39550;52.230;5.194;2024-01-15T08:26:53;100016.72;;;12.75;63.85
53647;BME280;39550;52.230;5.194;2024-01-15T08:29:18;100008.09;;;12.76;64.02
53647;BME280;39550;52.230;5.194;2024-01-15T08:31:46;100000.28;;;12.79;63.97
53647;BME280;39550;52.230;5.194;2024-01-15T08:34:11;99993.28;;;12.86;63.95
53647;BME280;39550;52.230;5.194;2024-01-15T08:36:36;99987.16;;;12.91;63.68
53647;BME280;39550;52.230;5.194;2024-01-15T08:39:02;99983.66;;;12.95;63.41
53647;BME280;39550;52.230;5.194;2024-01-15T08:41:29;99992.31;;;12.94;63.51
53647;BME280;39550;52.230;5.194;2024-01-15T08:43:55;99989.75;;;12.91;63.93
53647;BME280;39550;52.230;5.194;2024-01-15T08:46:20;99995.81;;;12.89;63.71
53647;BME280;39550;52.230;5.194;2024-01-15T08:48:45;100004.50;;;12.86;64.11
53647;BME280;39550;52.230;5.194;2024-01-15T08:51:10;100007.97;;;12.85;64.28
53647;BME280;39550;52.230;5.194;2024-01-15T08:53:39;100014.00;;;12.84;63.93
53647;BME280;39550;52.230;5.194;2024-01-15T08:56:04;100029.47;;;12.87;64.09
53647;BME280;39550;52.230;5.194;2024-01-15T08:58:31;100018.25;;;12.88;64.01
53647;BME280;39550;52.230;5.194;2024-01-15T09:00:56;100009.66;;;12.88;64.74
53647;BME280;39550;52.230;5.194;2024-01-15T09:03:21;100006.19;;;12.87;65.02
53647;BME280;39550;52.230;5.194;2024-01-15T09:05:46;99994.16;;;12.86;64.81
53647;BME280;39550;52.230;5.194;2024-01-15T09:08:13;100003.63;;;12.86;64.50
53647;BME280;39550;52.230;5.194;2024-01-15T09:10:39;99997.56;;;12.88;64.55
53647;BME280;39550;52.230;5.194;2024-01-15T09:13:04;99998.50;;;12.83;64.68
53647;BME280;39550;52.230;5.194;2024-01-15T09:15:29;100007.13;;;12.82;64.50
53647;BME280;39550;52.230;5.194;2024-01-15T09:17:55;100002.88;;;12.79;64.43
53647;BME280;39550;52.230;5.194;2024-01-15T09:20:22;99988.25;;;12.76;64.95
53647;BME280;39550;52.230;5.194;2024-01-15T09:22:47;100002.00;;;12.80;64.49
53647;BME280;39550;52.230;5.194;2024-01-15T09:25:13;100001.94;;;12.83;64.83
53647;BME280;39550;52.230;5.194;2024-01-15T09:27:38;99994.91;;;12.94;64.40
53647;BME280;39550;52.230;5.194;2024-01-15T09:30:04;100005.25;;;12.93;64.40
53647;BME280;39550;52.230;5.194;2024-01-15T09:32:30;100006.19;;;12.87;64.64
53647;BME280;39550;52.230;5.194;2024-01-15T09:34:55;100009.69;;;12.83;64.69
53647;BME280;39550;52.230;5.194;2024-01-15T09:37:20;100002.84;;;12.81;64.85
53647;BME280;39550;52.230;5.194;2024-01-15T09:39:46;100006.34;;;12.78;64.36
53647;BME280;39550;52.230;5.194;2024-01-15T09:42:13;100010.59;;;12.81;64.37
53647;BME280;39550;52.230;5.194;2024-01-15T09:44:39;100005.66;;;12.65;64.07
53647;BME280;39550;52.230;5.194;2024-01-15T09:47:05;100001.25;;;12.72;64.24
53647;BME280;39550;52.230;5.194;2024-01-15T09:49:30;99998.59;;;12.76;63.93
53647;BME280;39550;52.230;5.194;2024-01-15T09:51:57;100015.75;;;12.84;64.34
53647;BME280;39550;52.230;5.194;2024-01-15T09:54:23;100026.09;;;12.84;64.12
53647;BME280;39550;52.230;5.194;2024-01-15T09:56:49;100013.19;;;12.82;63.81
53647;BME280;39550;52.230;5.194;2024-01-15T09:59:18;100014.88;;;12.83;64.04
53647;BME280;39550;52.230;5.194;2024-01-15T10:01:44;100016.59;;;12.84;63.90
53647;BME280;39550;52.230;5.194;2024-01-15T10:04:13;100006.28;;;12.81;64.28
53647;BME280;39550;52.230;5.194;2024-01-15T10:06:39;100008.75;;;12.89;63.61
53647;BME280;39550;52.230;5.194;2024-01-15T10:09:06;100026.03;;;12.87;63.35
53647;BME280;39550;52.230;5.194;2024-01-15T10:11:33;100037.31;;;12.81;64.21
53647;BME280;39550;52.230;5.194;2024-01-15T10:13:58;100029.63;;;12.75;64.08
53647;BME280;39550;52.230;5.194;2024-01-15T10:16:23;100039.09;;;12.76;64.61
53647;BME280;39550;52.230;5.194;2024-01-15T10:18:49;100036.53;;;12.76;65.23
53647;BME280;39550;52.230;5.194;2024-01-15T10:21:14;100043.44;;;12.75;64.13
53647;BME280;39550;52.230;5.194;2024-01-15T10:23:41;100032.22;;;12.75;64.63
53647;BME280;39550;52.230;5.194;2024-01-15T10:26:06;100021.97;;;12.70;64.60
53647;BME280;39550;52.230;5.194;2024-01-15T10:28:31;100030.50;;;12.75;64.59
53647;BME280;39550;52.230;5.194;2024-01-15T10:30:58;100029.59;;;12.80;65.12
53647;BME280;39550;52.230;5.194;2024-01-15T10:33:27;100027.81;;;12.82;64.67
53647;BME280;39550;52.230;5.194;2024-01-15T10:35:57;100033.03;;;12.80;64.43
53647;BME280;39550;52.230;5.194;2024-01-15T10:38:23;100026.97;;;12.81;64.56
53647;BME280;39550;52.230;5.194;2024-01-15T10:40:52;100032.16;;;12.81;64.79
53647;BME280;39550;52.230;5.194;2024-01-15T10:43:18;100041.63;;;12.82;64.76
53647;BME280;39550;52.230;5.194;2024-01-15T10:45:51;100040.81;;;12.78;64.20
53647;BME280;39550;52.230;5.194;2024-01-15T10:48:17;100040.81;;;12.77;64.93
53647;BME280;39550;52.230;5.194;2024-01-15T10:50:47;100054.56;;;12.79;64.90
53647;BME280;39550;52.230;5.194;2024-01-15T10:53:14;100055.47;;;12.78;64.95
53647;BME280;39550;52.230;5.194;2024-01-15T10:55:41;100052.91;;;12.75;64.56
53647;BME280;39550;52.230;5.194;2024-01-15T10:58:07;100064.13;;;12.75;64.50
53647;BME280;39550;52.230;5.194;2024-01-15T11:00:33;100060.66;;;12.75;64.97
53647;BME280;39550;52.230;5.194;2024-01-15T11:03:01;100061.47;;;12.80;64.61
53647;BME280;39550;52.230;5.194;2024-01-15T11:05:27;100074.38;;;12.82;64.16
53647;BME280;39550;52.230;5.194;2024-01-15T11:07:55;100072.56;;;12.88;63.82
53647;BME280;39550;52.230;5.194;2024-01-15T11:13:08;100065.63;;;12.89;63.93
53647;BME280;39550;52.230;5.194;2024-01-15T11:15:54;100063.94;;;12.89;63.92
53647;BME280;39550;52.230;5.194;2024-01-15T11:18:19;100059.69;;;12.85;63.71
53647;BME280;39550;52.230;5.194;2024-01-15T11:29:07;100049.38;;;12.82;64.34
53647;BME280;39550;52.230;5.194;2024-01-15T11:34:04;100064.91;;;12.79;64.31
53647;BME280;39550;52.230;5.194;2024-01-15T11:41:51;100067.47;;;12.81;64.37
53647;BME280;39550;52.230;5.194;2024-01-15T11:44:17;100064.78;;;12.88;64.30
53647;BME280;39550;52.230;5.194;2024-01-15T11:46:54;100062.22;;;12.87;63.87
53647;BME280;39550;52.230;5.194;2024-01-15T11:49:26;100073.34;;;12.93;63.50
53647;BME280;39550;52.230;5.194;2024-01-15T11:51:57;100067.34;;;12.90;63.77
53647;BME280;39550;52.230;5.194;2024-01-15T11:54:24;100073.34;;;12.93;63.58
53647;BME280;39550;52.230;5.194;2024-01-15T11:56:50;100070.84;;;12.86;63.54
53647;BME280;39550;52.230;5.194;2024-01-15T11:59:15;100076.94;;;12.83;63.88
53647;BME280;39550;52.230;5.194;2024-01-15T12:01:41;100076.06;;;12.84;63.80
53647;BME280;39550;52.230;5.194;2024-01-15T12:04:06;100077.75;;;12.87;63.77
53647;BME280;39550;52.230;5.194;2024-01-15T12:06:31;100082.06;;;12.86;63.49
53647;BME280;39550;52.230;5.194;2024-01-15T12:09:07;100085.53;;;12.85;63.76
53647;BME280;39550;52.230;5.194;2024-01-15T12:11:34;100079.50;;;12.83;63.88
53647;BME280;39550;52.230;5.194;2024-01-15T12:14:01;100093.31;;;12.81;64.01
53647;BME280;39550;52.230;5.194;2024-01-15T12:16:26;100083.97;;;12.72;63.86
53647;BME280;39550;52.230;5.194;2024-01-15T12:18:52;100104.66;;;12.72;63.97
53647;BME280;39550;52.230;5.194;2024-01-15T12:21:17;100116.72;;;12.73;63.83
53647;BME280;39550;52.230;5.194;2024-01-15T12:23:46;100127.06;;;12.73;64.07
53647;BME280;39550;52.230;5.194;2024-01-15T12:26:11;100130.44;;;12.78;63.97
53647;BME280;39550;52.230;5.194;2024-01-15T12:28:36;100121.78;;;12.81;64.16
53647;BME280;39550;52.230;5.194;2024-01-15T12:31:02;100125.19;;;12.84;63.94
53647;BME280;39550;52.230;5.194;2024-01-15T12:33:30;100127.75;;;12.86;63.70
53647;BME280;39550;52.230;5.194;2024-01-15T12:35:55;100116.63;;;12.79;63.87
53647;BME280;39550;52.230;5.194;2024-01-15T12:38:21;100114.03;;;12.79;63.50
53647;BME280;39550;52.230;5.194;2024-01-15T12:40:46;100108.09;;;12.74;63.48
53647;BME280;39550;52.230;5.194;2024-01-15T12:43:12;100111.50;;;12.76;64.02
53647;BME280;39550;52.230;5.194;2024-01-15T12:45:37;100096.03;;;12.73;64.06
53647;BME280;39550;52.230;5.194;2024-01-15T12:48:04;100103.75;;;12.74;63.30
53647;BME280;39550;52.230;5.194;2024-01-15T12:50:29;100107.94;;;12.83;63.37
53647;BME280;39550;52.230;5.194;2024-01-15T12:52:54;100106.25;;;12.84;63.21
53647;BME280;39550;52.230;5.194;2024-01-15T12:55:20;100115.66;;;12.89;63.24
53647;BME280;39550;52.230;5.194;2024-01-15T12:57:45;100128.53;;;12.92;62.92
53647;BME280;39550;52.230;5.194;2024-01-15T13:00:11;100125.06;;;12.93;63.30
53647;BME280;39550;52.230;5.194;2024-01-15T13:02:38;100131.09;;;12.92;63.17
53647;BME280;39550;52.230;5.194;2024-01-15T13:05:06;100123.34;;;12.92;62.61